Glenavy, New Zealand
Current Conditions -  °F | °C
As of 8:00 AM on Thursday 27 Nov 2014 (Local Time) from NZCH Reporting Station
Clear Clear  
Wind Chill: 64°   Ceiling: Unl
Heat Index: 64°   Visibility: 6mi
Dew Point: 39°   Wind: 28mph
Humidity: 40%   Direction: 300°WNW
Pressure: 29.5"   Gusts: 41mph
Location:  44.92°S, 171.1°E
Report Text: NZCH 262000Z AUTO 30024G36KT 9999 NCD 18/04 Q0999 NOSIG
Loading
Personal Weather Stations






























Interactive Weather Map New forecast layout! Learn more

10-Day Weather Forecast

Advertisements
Track Severe Weather on mobile